Time;durP1;ratioP1;P1;durP2;ratioP2;P2;SDS_P1;SDS_P2;PMS_P1;PMS_P2;Temp;Humidity;BMP_temperature;BMP_pressure;BME280_temperature;BME280_humidity;BME280_pressure;Samples;Min_cycle;Max_cycle;Signal;HPM_P1;HPM_P2
2022/10/19 00:02:07;;;;;;;57.70;18.77;;;;;;;;;;6347571;22;20427;-86
2022/10/19 00:04:33;;;;;;;59.20;18.13;;;;;;;;;;6346575;22;20391;-84
2022/10/19 00:06:59;;;;;;;258.73;34.10;;;;;;;;;;6346170;22;21137;-86
2022/10/19 00:09:25;;;;;;;300.60;37.97;;;;;;;;;;6345610;22;20447;-84
2022/10/19 00:11:51;;;;;;;414.40;44.97;;;;;;;;;;6348423;22;20357;-87
2022/10/19 00:14:21;;;;;;;350.57;43.47;;;13.90;99.90;;;;;;6345833;22;20379;-85
2022/10/19 00:16:49;;;;;;;483.00;48.67;;;13.90;99.90;;;;;;6349325;22;20436;-86
2022/10/19 00:19:22;;;;;;;793.73;80.57;;;14.00;99.90;;;;;;6345609;22;20404;-86
2022/10/19 00:21:48;;;;;;;415.33;43.63;;;;;;;;;;6343248;22;20681;-87
2022/10/19 00:24:14;;;;;;;369.40;38.00;;;;;;;;;;6346684;22;20376;-86
2022/10/19 00:26:40;;;;;;;397.27;45.37;;;;;;;;;;6345723;22;20611;-86
2022/10/19 00:29:06;;;;;;;220.93;37.67;;;;;;;;;;6344940;22;20748;-88
2022/10/19 00:31:32;;;;;;;221.67;29.80;;;;;;;;;;6345649;22;20464;-84
2022/10/19 00:33:58;;;;;;;249.67;32.10;;;;;;;;;;6345835;22;20376;-86
2022/10/19 00:36:26;;;;;;;119.17;27.17;;;14.30;99.90;;;;;;6345680;22;20365;-84
2022/10/19 00:38:53;;;;;;;312.67;40.30;;;;;;;;;;6345640;22;20412;-87
2022/10/19 00:41:20;;;;;;;110.40;23.17;;;14.60;99.90;;;;;;6346037;22;20369;-87
2022/10/19 00:43:58;;;;;;;226.87;31.60;;;14.80;99.90;;;;;;6345418;22;20460;-86
2022/10/19 00:46:26;;;;;;;213.77;31.80;;;14.40;99.90;;;;;;6346490;22;20425;-88
2022/10/19 00:48:58;;;;;;;179.97;30.53;;;14.20;99.90;;;;;;6346560;22;20633;-87
2022/10/19 00:51:27;;;;;;;280.53;38.50;;;14.30;99.90;;;;;;6346229;22;20356;-87
2022/10/19 00:53:53;;;;;;;217.20;35.17;;;;;;;;;;6348127;22;20365;-88
2022/10/19 00:56:19;;;;;;;211.73;31.67;;;14.30;99.90;;;;;;6347308;22;20361;-87
2022/10/19 00:58:46;;;;;;;260.47;33.73;;;;;;;;;;6345923;22;20400;-87
2022/10/19 01:01:16;;;;;;;249.83;33.80;;;14.30;99.90;;;;;;6344988;22;20377;-84
2022/10/19 01:03:42;;;;;;;305.63;37.20;;;;;;;;;;6345838;22;20369;-87
2022/10/19 01:06:08;;;;;;;109.23;26.83;;;;;;;;;;6347652;22;20361;-86
2022/10/19 01:08:34;;;;;;;202.53;29.27;;;;;;;;;;6344665;22;20573;-87
2022/10/19 01:11:14;;;;;;;324.27;42.07;;;14.50;99.90;;;;;;6354242;22;20356;-86
2022/10/19 01:13:49;;;;;;;102.70;25.70;;;14.60;99.90;;;;;;6342804;22;20373;-84
2022/10/19 01:16:19;;;;;;;188.23;32.90;;;14.70;99.90;;;;;;6342512;22;20372;-88
2022/10/19 01:18:51;;;;;;;112.37;28.20;;;14.80;99.90;;;;;;6344786;22;20392;-87
2022/10/19 01:21:21;;;;;;;286.70;30.43;;;14.90;99.90;;;;;;6342905;22;20349;-88
2022/10/19 01:24:21;;;;;;;215.80;29.23;;;15.10;99.90;;;;;;6339018;22;20377;-88
2022/10/19 01:26:53;;;;;;;347.07;34.03;;;15.00;99.90;;;;;;6338305;22;21072;-88
2022/10/19 01:29:31;;;;;;;293.30;28.03;;;14.80;99.90;;;;;;6338793;22;20975;-87
2022/10/19 01:32:08;;;;;;;145.30;22.60;;;14.90;99.90;;;;;;6338132;22;20874;-89
2022/10/19 01:34:50;;;;;;;209.07;28.13;;;14.90;99.90;;;;;;6338347;22;20365;-89
2022/10/19 01:37:44;;;;;;;250.57;31.63;;;14.80;99.90;;;;;;6342733;22;20364;-90
2022/10/19 01:40:19;;;;;;;165.47;28.10;;;14.90;99.90;;;;;;6339959;22;20901;-87
2022/10/19 01:43:00;;;;;;;162.53;27.33;;;14.90;99.90;;;;;;6343823;22;20398;-86
2022/10/19 01:45:50;;;;;;;181.23;30.43;;;15.00;99.90;;;;;;6343212;22;20371;-87
2022/10/19 01:48:29;;;;;;;142.47;27.77;;;15.00;99.90;;;;;;6342589;22;20357;-85
2022/10/19 01:51:06;;;;;;;118.57;24.07;;;15.10;99.90;;;;;;6346794;22;20345;-85
2022/10/19 01:53:38;;;;;;;259.03;32.77;;;15.10;99.90;;;;;;6342838;22;20396;-84
2022/10/19 01:56:05;;;;;;;125.60;26.43;;;15.00;99.90;;;;;;6342036;22;20373;-86
2022/10/19 01:58:34;;;;;;;159.40;27.27;;;15.00;99.90;;;;;;6341509;22;20368;-87
2022/10/19 02:01:05;;;;;;;108.53;26.67;;;15.10;99.90;;;;;;6339897;22;20434;-87
2022/10/19 02:03:33;;;;;;;136.70;25.33;;;15.00;99.90;;;;;;6341997;22;20345;-87
2022/10/19 02:06:00;;;;;;;94.20;27.57;;;15.00;99.90;;;;;;6340781;22;20377;-86
2022/10/19 02:08:30;;;;;;;75.30;24.30;;;14.70;99.90;;;;;;6339923;22;21131;-88
2022/10/19 02:10:57;;;;;;;148.67;32.27;;;14.60;99.90;;;;;;6332997;22;20376;-87
2022/10/19 02:13:25;;;;;;;123.70;27.40;;;14.70;99.90;;;;;;6335463;22;20385;-87
2022/10/19 02:15:53;;;;;;;65.27;26.60;;;14.80;99.90;;;;;;6335418;22;20780;-85
2022/10/19 02:18:25;;;;;;;50.83;23.90;;;14.80;99.90;;;;;;6340062;22;20672;-85
2022/10/19 02:20:51;;;;;;;62.27;24.13;;;;;;;;;;6335773;22;20356;-85
2022/10/19 02:23:20;;;;;;;55.60;23.50;;;14.70;99.90;;;;;;6337695;22;20405;-85
2022/10/19 02:25:46;;;;;;;52.57;24.90;;;;;;;;;;6337817;22;20368;-85
2022/10/19 02:28:12;;;;;;;56.87;23.83;;;;;;;;;;6338580;22;20396;-84
2022/10/19 02:30:38;;;;;;;70.27;25.33;;;;;;;;;;6338738;22;20814;-85
2022/10/19 02:33:04;;;;;;;170.20;28.00;;;;;;;;;;6340909;22;20372;-85
2022/10/19 02:35:30;;;;;;;396.83;43.20;;;;;;;;;;6339060;22;20429;-85
2022/10/19 02:38:00;;;;;;;360.87;43.47;;;14.60;99.90;;;;;;6337514;22;20871;-85
2022/10/19 02:40:28;;;;;;;376.93;41.70;;;14.70;99.90;;;;;;6341438;22;20403;-85
2022/10/19 02:43:08;;;;;;;451.63;44.43;;;14.60;99.90;;;;;;6337286;22;20365;-85
2022/10/19 02:45:39;;;;;;;225.57;31.63;;;14.60;99.90;;;;;;6339048;22;20372;-85
2022/10/19 02:48:09;;;;;;;339.13;33.83;;;14.50;99.90;;;;;;6340610;22;20384;-84
2022/10/19 02:50:35;;;;;;;338.80;34.93;;;14.30;99.90;;;;;;6341557;22;20501;-84
2022/10/19 02:53:01;;;;;;;231.03;26.23;;;14.40;99.90;;;;;;6342405;22;20365;-83
2022/10/19 02:55:29;;;;;;;515.53;45.97;;;14.40;99.90;;;;;;6341886;22;20794;-86
2022/10/19 02:57:54;;;;;;;447.80;41.77;;;14.40;99.90;;;;;;6340887;22;20195;-83
2022/10/19 03:00:20;;;;;;;397.63;34.07;;;14.40;99.90;;;;;;6342532;22;20400;-83
2022/10/19 03:02:47;;;;;;;172.53;23.03;;;;;;;;;;6340400;22;20154;-83
2022/10/19 03:05:13;;;;;;;462.40;36.33;;;;;;;;;;6343069;22;20585;-84
2022/10/19 03:07:38;;;;;;;340.87;30.13;;;;;;;;;;6343457;22;20456;-84
2022/10/19 03:10:04;;;;;;;379.20;33.17;;;14.20;99.90;;;;;;6340827;22;20427;-84
2022/10/19 03:12:30;;;;;;;255.43;26.53;;;;;;;;;;6340729;22;20711;-84
2022/10/19 03:14:56;;;;;;;108.17;19.13;;;;;;;;;;6340868;22;20425;-84
2022/10/19 03:17:22;;;;;;;248.53;24.43;;;;;;;;;;6343100;22;20387;-83
2022/10/19 03:19:48;;;;;;;329.47;32.87;;;;;;;;;;6340624;22;20708;-83
2022/10/19 03:22:14;;;;;;;144.30;20.07;;;;;;;;;;6342210;22;20377;-84
2022/10/19 03:24:40;;;;;;;131.07;19.03;;;;;;;;;;6341707;22;20399;-83
2022/10/19 03:27:06;;;;;;;140.47;20.67;;;;;;;;;;6338665;22;20794;-84
2022/10/19 03:29:32;;;;;;;181.47;22.00;;;;;;;;;;6340163;22;20519;-84
2022/10/19 03:31:57;;;;;;;113.27;19.70;;;14.40;99.90;;;;;;6341320;22;20748;-84
2022/10/19 03:34:23;;;;;;;209.67;23.67;;;;;;;;;;6340964;22;20387;-84
2022/10/19 03:36:49;;;;;;;144.80;22.60;;;;;;;;;;6342259;22;20143;-84
2022/10/19 03:39:16;;;;;;;121.20;17.43;;;;;;;;;;6341059;22;20432;-84
2022/10/19 03:41:42;;;;;;;89.67;16.60;;;14.10;99.90;;;;;;6334861;22;20975;-84
2022/10/19 03:44:09;;;;;;;198.33;22.23;;;14.00;99.90;;;;;;6339323;22;20377;-84
2022/10/19 03:46:35;;;;;;;148.77;22.10;;;;;;;;;;6343423;22;20393;-84
2022/10/19 03:49:01;;;;;;;162.57;19.70;;;13.90;99.90;;;;;;6340295;22;20463;-85
2022/10/19 03:51:29;;;;;;;96.60;17.37;;;14.10;99.90;;;;;;6339040;22;20373;-85
2022/10/19 03:53:58;;;;;;;122.90;21.47;;;14.10;99.90;;;;;;6340030;22;20381;-83
2022/10/19 03:56:25;;;;;;;194.97;22.70;;;14.10;99.90;;;;;;6343999;22;20384;-86
2022/10/19 03:58:53;;;;;;;90.20;19.03;;;14.10;99.90;;;;;;6333094;22;20461;-84
2022/10/19 04:01:40;;;;;;;63.77;14.50;;;14.10;99.90;;;;;;6338618;22;20377;-83
2022/10/19 04:04:09;;;;;;;108.67;17.77;;;13.90;99.90;;;;;;6341672;22;20376;-84
2022/10/19 04:06:37;;;;;;;54.83;12.07;;;14.00;99.90;;;;;;6340887;22;20376;-84
2022/10/19 04:09:04;;;;;;;62.20;15.77;;;14.00;99.90;;;;;;6339464;22;20443;-84
2022/10/19 04:11:31;;;;;;;91.57;18.23;;;14.00;99.90;;;;;;6338137;22;20369;-84
2022/10/19 04:13:57;;;;;;;70.40;15.23;;;;;;;;;;6340929;22;20449;-85
2022/10/19 04:16:25;;;;;;;42.00;14.73;;;14.00;99.90;;;;;;6336867;22;20372;-85
2022/10/19 04:18:51;;;;;;;91.97;15.80;;;14.00;99.90;;;;;;6338787;22;20910;-84
2022/10/19 04:21:24;;;;;;;88.17;16.63;;;14.40;99.90;;;;;;6335377;22;20408;-86
2022/10/19 04:24:14;;;;;;;41.03;13.63;;;13.90;99.90;;;;;;6337697;22;20376;-85
2022/10/19 04:26:46;;;;;;;45.67;14.40;;;13.70;99.90;;;;;;6341734;22;20380;-87
2022/10/19 04:29:12;;;;;;;40.37;14.60;;;13.70;99.90;;;;;;6341497;22;20500;-87
2022/10/19 04:31:38;;;;;;;58.67;14.10;;;13.80;99.90;;;;;;6340588;22;20372;-87
2022/10/19 04:34:05;;;;;;;79.43;14.57;;;13.80;99.90;;;;;;6341597;22;20392;-89
2022/10/19 04:36:31;;;;;;;82.80;17.63;;;;;;;;;;6341839;22;20703;-88
2022/10/19 04:38:57;;;;;;;105.40;16.90;;;;;;;;;;6341957;22;20415;-87
2022/10/19 04:41:23;;;;;;;103.30;16.57;;;;;;;;;;6340939;22;20452;-87
2022/10/19 04:43:54;;;;;;;92.77;16.60;;;13.70;99.90;;;;;;6313506;22;20774;-86
2022/10/19 04:46:20;;;;;;;178.43;23.07;;;;;;;;;;6343531;22;20414;-87
2022/10/19 04:48:47;;;;;;;282.43;27.00;;;13.70;99.90;;;;;;6342931;22;20824;-87
2022/10/19 04:51:13;;;;;;;273.30;25.97;;;;;;;;;;6333032;22;20387;-87
2022/10/19 04:53:41;;;;;;;196.37;25.17;;;13.60;99.90;;;;;;6340193;22;20361;-86
2022/10/19 04:56:21;;;;;;;138.03;23.60;;;13.80;99.90;;;;;;6336105;22;20375;-87
2022/10/19 04:58:48;;;;;;;206.10;25.73;;;;;;;;;;6335968;22;20432;-87
2022/10/19 05:01:19;;;;;;;224.23;25.90;;;13.60;99.90;;;;;;6335576;22;20400;-87
2022/10/19 05:03:45;;;;;;;197.67;23.27;;;13.70;99.90;;;;;;6336777;22;20384;-86
2022/10/19 05:06:11;;;;;;;213.03;27.40;;;13.80;99.90;;;;;;6340994;22;20895;-87
2022/10/19 05:08:38;;;;;;;313.47;30.47;;;;;;;;;;6337413;22;20747;-86
2022/10/19 05:11:06;;;;;;;240.43;30.07;;;13.80;99.90;;;;;;6339503;22;20371;-86
2022/10/19 05:13:33;;;;;;;328.90;33.03;;;;;;;;;;6335234;22;20373;-87
2022/10/19 05:16:00;;;;;;;224.20;28.33;;;13.90;99.90;;;;;;6336972;22;20740;-87
2022/10/19 05:18:27;;;;;;;288.33;30.43;;;;;;;;;;6289558;22;20372;-86
2022/10/19 05:21:03;;;;;;;169.57;25.73;;;13.90;99.90;;;;;;6257673;22;20572;-86
2022/10/19 05:23:29;;;;;;;335.53;36.10;;;;;;;;;;6316265;22;20351;-87
2022/10/19 05:26:00;;;;;;;455.53;42.20;;;13.80;99.90;;;;;;6342088;22;20373;-86
2022/10/19 05:28:26;;;;;;;314.70;29.87;;;13.90;99.90;;;;;;6337063;22;20376;-87
2022/10/19 05:30:52;;;;;;;293.03;34.43;;;;;;;;;;6342889;22;20395;-86
2022/10/19 05:33:18;;;;;;;232.50;26.57;;;;;;;;;;6341601;22;20380;-86
2022/10/19 05:35:44;;;;;;;570.20;51.37;;;;;;;;;;6341892;22;20491;-86
2022/10/19 05:38:10;;;;;;;362.83;33.57;;;;;;;;;;6340420;22;20393;-87
2022/10/19 05:40:35;;;;;;;431.30;37.07;;;;;;;;;;6340804;22;20400;-87
2022/10/19 05:43:01;;;;;;;435.87;41.20;;;;;;;;;;6340692;22;20369;-87
2022/10/19 05:45:27;;;;;;;286.63;29.40;;;;;;;;;;6339627;22;20410;-87
2022/10/19 05:47:53;;;;;;;360.53;32.07;;;;;;;;;;6342738;22;20369;-87
2022/10/19 05:50:19;;;;;;;277.70;27.40;;;;;;;;;;6339800;22;20752;-87
2022/10/19 05:52:45;;;;;;;440.27;36.93;;;;;;;;;;6343027;22;20937;-86
2022/10/19 05:55:11;;;;;;;534.10;45.20;;;;;;;;;;6342635;22;20422;-86
2022/10/19 05:57:38;;;;;;;302.83;27.80;;;;;;;;;;6342240;22;20357;-87
2022/10/19 06:00:04;;;;;;;453.07;37.97;;;13.40;99.90;;;;;;6342595;22;20723;-87
2022/10/19 06:02:30;;;;;;;155.40;24.37;;;13.70;99.90;;;;;;6342427;22;20376;-86
2022/10/19 06:04:56;;;;;;;143.27;21.40;;;;;;;;;;6341838;22;20426;-88
2022/10/19 06:07:22;;;;;;;389.57;36.57;;;;;;;;;;6341700;22;20373;-87
2022/10/19 06:09:48;;;;;;;322.43;29.10;;;;;;;;;;6338913;22;20481;-87
2022/10/19 06:12:14;;;;;;;468.27;41.40;;;;;;;;;;6338233;22;20381;-87
2022/10/19 06:14:41;;;;;;;362.77;33.87;;;13.70;99.90;;;;;;6339663;22;20391;-87
2022/10/19 06:17:06;;;;;;;310.67;29.23;;;13.90;99.90;;;;;;6340876;22;21031;-87
2022/10/19 06:19:32;;;;;;;320.73;31.33;;;;;;;;;;6340938;22;20450;-87
2022/10/19 06:21:58;;;;;;;569.80;50.47;;;;;;;;;;6340618;22;20158;-87
2022/10/19 06:24:24;;;;;;;261.87;31.00;;;;;;;;;;6342151;22;20395;-87
2022/10/19 06:26:50;;;;;;;253.37;26.87;;;;;;;;;;6340774;22;20388;-86
2022/10/19 06:29:16;;;;;;;243.20;25.20;;;;;;;;;;6340301;22;20428;-86
2022/10/19 06:31:42;;;;;;;439.07;37.50;;;;;;;;;;6343021;22;20842;-87
2022/10/19 06:34:08;;;;;;;517.90;46.53;;;;;;;;;;6339377;22;20372;-87
2022/10/19 06:36:34;;;;;;;236.83;25.93;;;14.00;99.90;;;;;;6342003;22;20368;-86
2022/10/19 06:39:00;;;;;;;273.97;28.17;;;;;;;;;;6341093;22;20419;-87
2022/10/19 06:41:27;;;;;;;186.23;23.50;;;;;;;;;;6341352;22;20383;-87
2022/10/19 06:43:53;;;;;;;120.30;21.77;;;13.30;99.90;;;;;;6341683;22;20396;-87
2022/10/19 06:46:22;;;;;;;180.90;22.43;;;14.20;99.90;;;;;;6338893;22;20736;-86
2022/10/19 06:48:59;;;;;;;203.43;19.10;;;14.20;99.90;;;;;;6339148;22;20450;-87
2022/10/19 06:51:26;;;;;;;120.57;17.63;;;14.10;99.90;;;;;;6341627;22;20364;-87
2022/10/19 06:53:53;;;;;;;93.70;15.53;;;14.20;99.90;;;;;;6342323;22;20373;-87
2022/10/19 06:56:19;;;;;;;204.03;20.40;;;;;;;;;;6340920;22;20449;-86
2022/10/19 06:58:45;;;;;;;97.67;14.70;;;;;;;;;;6340596;22;20400;-87
2022/10/19 07:01:12;;;;;;;311.27;25.07;;;13.70;99.90;;;;;;6339465;22;20907;-87
2022/10/19 07:03:38;;;;;;;205.17;19.97;;;;;;;;;;6339441;22;20763;-86
2022/10/19 07:06:09;;;;;;;101.50;18.20;;;13.50;99.90;;;;;;6340156;22;20392;-86
2022/10/19 07:08:37;;;;;;;259.30;21.97;;;13.70;99.90;;;;;;6340160;22;20369;-87
2022/10/19 07:11:10;;;;;;;227.10;21.73;;;13.70;99.90;;;;;;6340161;22;20377;-87
2022/10/19 07:13:36;;;;;;;190.23;20.73;;;;;;;;;;6338914;22;20381;-86
2022/10/19 07:16:09;;;;;;;202.27;21.87;;;13.60;99.90;;;;;;6340031;22;20514;-86
2022/10/19 07:18:37;;;;;;;154.30;17.80;;;13.60;99.90;;;;;;6342609;22;20372;-86
2022/10/19 07:21:05;;;;;;;230.63;18.87;;;13.50;99.90;;;;;;6322929;22;20512;-88
2022/10/19 07:23:32;;;;;;;242.87;20.63;;;13.60;99.90;;;;;;6309306;22;20432;-85
2022/10/19 07:26:00;;;;;;;204.10;18.10;;;;;;;;;;6307301;22;20406;-87
2022/10/19 07:28:28;;;;;;;176.30;17.83;;;13.60;99.90;;;;;;6311007;22;20844;-87
2022/10/19 07:30:54;;;;;;;125.20;14.10;;;;;;;;;;6309712;22;20402;-88
2022/10/19 07:33:20;;;;;;;152.67;17.47;;;;;;;;;;6309029;22;20374;-89
2022/10/19 07:35:46;;;;;;;222.77;20.90;;;;;;;;;;6309918;22;20472;-86
2022/10/19 07:38:11;;;;;;;69.33;12.13;;;;;;;;;;6308622;22;20374;-86
2022/10/19 07:40:37;;;;;;;63.17;11.63;;;;;;;;;;6308450;22;20417;-85
2022/10/19 07:43:03;;;;;;;109.33;14.10;;;;;;;;;;6310236;22;20370;-87
2022/10/19 07:45:29;;;;;;;62.27;12.30;;;;;;;;;;6309124;22;20462;-84
2022/10/19 07:47:55;;;;;;;93.73;15.00;;;;;;;;;;6309089;22;20392;-85
2022/10/19 07:50:23;;;;;;;41.20;11.30;;;;;;;;;;6311119;22;20417;-84
2022/10/19 07:52:51;;;;;;;106.53;17.97;;;14.10;99.90;;;;;;6308626;22;20380;-85
2022/10/19 07:55:17;;;;;;;147.80;16.70;;;;;;;;;;6309190;22;20986;-86
2022/10/19 07:57:42;;;;;;;56.97;13.90;;;;;;;;;;6311398;22;20566;-87
2022/10/19 08:00:09;;;;;;;100.27;14.57;;;14.30;99.90;;;;;;6310182;22;20405;-86
2022/10/19 08:02:35;;;;;;;58.33;14.17;;;;;;;;;;6311851;22;20369;-87
2022/10/19 08:05:01;;;;;;;126.73;15.40;;;;;;;;;;6309887;22;20382;-87
2022/10/19 08:07:27;;;;;;;72.07;13.80;;;;;;;;;;6309740;22;20386;-86
2022/10/19 08:09:53;;;;;;;33.77;11.83;;;;;;;;;;6308931;22;20417;-87
2022/10/19 08:12:18;;;;;;;57.20;17.43;;;;;;;;;;6310321;22;20358;-87
2022/10/19 08:14:46;;;;;;;49.50;16.20;;;;;;;;;;6309063;22;20362;-87
2022/10/19 08:17:16;;;;;;;40.13;14.73;;;;;;;;;;6308822;22;20372;-86
2022/10/19 08:19:43;;;;;;;38.00;15.67;;;;;;;;;;6308939;22;20373;-86
2022/10/19 08:22:09;;;;;;;68.13;17.07;;;;;;;;;;6309604;22;20417;-85
2022/10/19 08:24:34;;;;;;;62.13;16.60;;;;;;;;;;6309717;22;20378;-88
2022/10/19 08:27:01;;;;;;;43.87;17.43;;;;;;;;;;6308713;22;20377;-86
2022/10/19 08:29:27;;;;;;;36.60;15.83;;;;;;;;;;6309483;22;20918;-89
2022/10/19 08:31:53;;;;;;;41.80;16.57;;;;;;;;;;6311557;22;20382;-87
2022/10/19 08:34:19;;;;;;;27.60;14.37;;;;;;;;;;6310851;22;20368;-87
2022/10/19 08:36:46;;;;;;;28.27;13.20;;;;;;;;;;6308236;22;20370;-86
2022/10/19 08:39:12;;;;;;;31.23;15.17;;;15.80;99.90;;;;;;6309047;22;20441;-88
2022/10/19 08:42:02;;;;;;;30.97;15.43;;;16.00;99.90;;;;;;6308002;22;20398;-84
2022/10/19 08:44:33;;;;;;;32.90;15.00;;;15.90;99.90;;;;;;6307685;22;20373;-87
2022/10/19 08:47:36;;;;;;;34.40;15.97;;;15.80;99.90;;;;;;6307946;22;20381;-86
2022/10/19 08:50:02;;;;;;;24.80;12.97;;;;;;;;;;6309866;22;20752;-85
2022/10/19 08:52:34;;;;;;;28.90;15.30;;;16.00;99.90;;;;;;6310199;22;20365;-86
2022/10/19 08:55:03;;;;;;;24.23;13.77;;;16.00;99.90;;;;;;6308691;22;20382;-87
2022/10/19 08:57:52;;;;;;;20.97;13.20;;;16.00;99.90;;;;;;6310847;22;20362;-86
2022/10/19 09:00:45;;;;;;;26.67;14.97;;;15.90;99.90;;;;;;6311102;22;20397;-87
2022/10/19 09:03:30;;;;;;;22.97;14.10;;;16.10;99.90;;;;;;6308023;22;20373;-87
2022/10/19 09:06:04;;;;;;;27.57;14.90;;;16.20;99.90;;;;;;6312795;22;20374;-87
2022/10/19 09:08:31;;;;;;;20.87;13.63;;;16.40;99.90;;;;;;6312763;22;20349;-87
2022/10/19 09:10:57;;;;;;;27.07;14.77;;;;;;;;;;6310797;22;20476;-88
2022/10/19 09:13:37;;;;;;;17.30;12.67;;;16.70;99.90;;;;;;6310291;22;20384;-87
2022/10/19 09:16:03;;;;;;;22.53;12.40;;;16.40;99.90;;;;;;6310741;22;20372;-87
2022/10/19 09:18:32;;;;;;;31.87;14.57;;;16.60;99.90;;;;;;6310329;22;20419;-87
2022/10/19 09:21:08;;;;;;;27.30;14.10;;;16.60;99.90;;;;;;6310844;22;20413;-86
2022/10/19 09:23:38;;;;;;;21.23;11.77;;;16.40;99.90;;;;;;6311541;22;20834;-87
2022/10/19 09:26:16;;;;;;;17.13;11.27;;;16.40;99.90;;;;;;6312541;22;20377;-88
2022/10/19 09:28:51;;;;;;;24.97;12.47;;;16.30;99.90;;;;;;6311690;22;20366;-86
2022/10/19 09:31:35;;;;;;;17.60;11.77;;;16.20;99.90;;;;;;6311128;22;20384;-86
2022/10/19 09:34:28;;;;;;;21.83;12.90;;;16.00;99.90;;;;;;6310473;22;20701;-86
2022/10/19 09:36:56;;;;;;;15.93;10.00;;;16.10;99.90;;;;;;6312690;22;20575;-85
2022/10/19 09:39:23;;;;;;;19.07;9.80;;;16.20;99.90;;;;;;6313090;22;20362;-86
2022/10/19 09:42:16;;;;;;;11.30;8.17;;;16.20;99.90;;;;;;6310027;22;20404;-85
2022/10/19 09:44:42;;;;;;;14.43;9.50;;;;;;;;;;6307479;22;20396;-87
2022/10/19 09:47:36;;;;;;;17.80;10.10;;;16.50;99.90;;;;;;6309842;22;20358;-87
2022/10/19 09:50:21;;;;;;;15.80;9.70;;;16.10;99.90;;;;;;6307182;22;20961;-86
2022/10/19 09:52:54;;;;;;;16.90;9.30;;;16.10;99.90;;;;;;6307441;22;20369;-87
2022/10/19 09:55:33;;;;;;;16.47;10.27;;;16.00;99.90;;;;;;6308536;22;20397;-86
2022/10/19 09:58:05;;;;;;;16.77;9.63;;;16.10;99.90;;;;;;6311591;22;20929;-87
2022/10/19 10:00:34;;;;;;;19.00;9.30;;;16.30;99.90;;;;;;6310110;22;20397;-85
2022/10/19 10:03:00;;;;;;;19.53;8.20;;;;;;;;;;6309417;22;20376;-89
2022/10/19 10:05:38;;;;;;;16.60;9.13;;;16.60;99.90;;;;;;6310197;22;20370;-87
2022/10/19 10:08:11;;;;;;;15.80;9.47;;;16.80;99.90;;;;;;6309694;22;20369;-86
2022/10/19 10:10:41;;;;;;;17.93;9.50;;;16.90;99.90;;;;;;6309346;22;20528;-86
2022/10/19 10:13:15;;;;;;;13.70;8.40;;;16.80;99.90;;;;;;6312073;22;20369;-86
2022/10/19 10:15:45;;;;;;;11.47;8.47;;;17.10;99.90;;;;;;6311074;22;20353;-86
2022/10/19 10:18:17;;;;;;;11.00;7.70;;;17.40;99.90;;;;;;6309358;22;20718;-86
2022/10/19 10:21:11;;;;;;;10.90;8.40;;;17.50;99.90;;;;;;6307559;22;20826;-85
2022/10/19 10:23:37;;;;;;;10.33;7.70;;;;;;;;;;6310838;22;20356;-87
2022/10/19 10:26:13;;;;;;;18.27;7.73;;;17.90;99.90;;;;;;6311354;22;20757;-86
2022/10/19 10:28:47;;;;;;;11.60;6.90;;;17.80;99.90;;;;;;6309246;22;20412;-86
2022/10/19 10:31:13;;;;;;;8.50;6.70;;;;;;;;;;6311014;22;20392;-86
2022/10/19 10:33:38;;;;;;;10.70;6.60;;;;;;;;;;6311531;22;20358;-87
2022/10/19 10:36:07;;;;;;;8.67;5.97;;;17.90;99.90;;;;;;6309765;22;20668;-87
2022/10/19 10:38:57;;;;;;;9.43;7.20;;;18.00;99.90;;;;;;6307593;22;20412;-86
2022/10/19 10:41:24;;;;;;;11.10;6.07;;;17.90;99.90;;;;;;6308618;22;20440;-86
2022/10/19 10:43:56;;;;;;;6.50;5.50;;;18.20;99.90;;;;;;6309237;22;20378;-87
2022/10/19 10:46:27;;;;;;;6.90;5.83;;;18.20;99.90;;;;;;6310117;22;20373;-86
2022/10/19 10:49:04;;;;;;;9.43;5.43;;;18.50;99.90;;;;;;6307802;22;20452;-86
2022/10/19 10:51:37;;;;;;;8.70;6.30;;;18.50;99.90;;;;;;6309714;22;20415;-88
2022/10/19 10:54:30;;;;;;;9.90;5.27;;;18.60;99.90;;;;;;6307634;22;20362;-85
2022/10/19 10:57:11;;;;;;;11.13;5.87;;;18.40;99.90;;;;;;6305461;22;20382;-87
2022/10/19 11:00:11;;;;;;;8.63;5.37;;;18.10;99.90;;;;;;6311200;22;20353;-86
2022/10/19 11:02:50;;;;;;;13.23;5.13;;;18.40;99.90;;;;;;6309059;22;20381;-86
2022/10/19 11:05:22;;;;;;;12.70;4.87;;;18.80;99.90;;;;;;6310331;22;20407;-89
2022/10/19 11:07:53;;;;;;;6.83;5.53;;;18.60;99.90;;;;;;6308603;22;20381;-87
2022/10/19 11:10:35;;;;;;;9.47;5.17;;;19.00;99.90;;;;;;6309039;22;20436;-86
2022/10/19 11:13:09;;;;;;;8.97;4.13;;;19.30;99.90;;;;;;6309330;22;20397;-85
2022/10/19 11:15:50;;;;;;;10.80;4.70;;;19.90;99.90;;;;;;6309427;22;20386;-87
2022/10/19 11:18:24;;;;;;;8.17;4.60;;;20.40;99.90;;;;;;6309862;22;20381;-86
2022/10/19 11:21:10;;;;;;;5.63;4.13;;;20.60;99.90;;;;;;6308848;22;20423;-86
2022/10/19 11:24:04;;;;;;;6.80;5.03;;;20.80;99.90;;;;;;6308888;22;20836;-86
2022/10/19 11:26:42;;;;;;;5.73;4.73;;;20.50;99.90;;;;;;6309644;22;20378;-85
2022/10/19 11:29:32;;;;;;;5.37;4.33;;;20.60;99.90;;;;;;6308065;22;20758;-86
2022/10/19 11:31:58;;;;;;;5.50;3.70;;;;;;;;;;6308607;22;20409;-86
2022/10/19 11:35:01;;;;;;;8.63;4.47;;;20.50;99.90;;;;;;6308110;22;20370;-88
2022/10/19 11:37:52;;;;;;;6.33;3.20;;;21.20;99.90;;;;;;6309409;22;20366;-88
2022/10/19 11:40:34;;;;;;;6.50;3.87;;;21.50;99.90;;;;;;6309572;22;20899;-86
2022/10/19 11:43:09;;;;;;;4.70;3.93;;;21.60;99.90;;;;;;6308587;22;20862;-87
2022/10/19 11:45:49;;;;;;;3.50;3.13;;;21.60;99.90;;;;;;6309750;22;20401;-84
2022/10/19 11:48:43;;;;;;;6.70;3.23;;;21.40;99.90;;;;;;6308466;22;20427;-86
2022/10/19 11:51:33;;;;;;;3.23;2.93;;;21.70;99.90;;;;;;6310650;22;20401;-88
2022/10/19 11:53:58;;;;;;;4.43;3.17;;;;;;;;;;6308774;22;20368;-87
2022/10/19 11:56:36;;;;;;;6.03;3.20;;;21.90;99.90;;;;;;6308890;22;20918;-85
2022/10/19 11:59:02;;;;;;;8.13;2.83;;;;;;;;;;6309328;22;20361;-86
2022/10/19 12:01:52;;;;;;;3.40;2.87;;;21.80;99.90;;;;;;6308756;22;20856;-86
2022/10/19 12:04:34;;;;;;;3.70;2.70;;;21.90;99.90;;;;;;6308927;22;20840;-87
2022/10/19 12:07:23;;;;;;;3.50;2.90;;;21.90;99.90;;;;;;6307958;22;20384;-87
2022/10/19 12:10:30;;;;;;;3.23;2.93;;;22.00;99.90;;;;;;6308782;22;20466;-85
2022/10/19 12:13:00;;;;;;;4.83;3.00;;;21.70;99.90;;;;;;6308673;22;20936;-86
2022/10/19 12:15:27;;;;;;;9.60;2.57;;;;;;;;;;6307323;22;20455;-86
2022/10/19 12:17:57;;;;;;;4.90;2.60;;;21.20;99.90;;;;;;6309939;22;20362;-87
2022/10/19 12:20:44;;;;;;;12.57;3.50;;;21.00;99.90;;;;;;6308798;22;20394;-86
2022/10/19 12:23:31;;;;;;;5.23;2.80;;;20.50;99.90;;;;;;6313140;22;20383;-86
2022/10/19 12:26:00;;;;;;;2.70;2.50;;;20.40;99.90;;;;;;6292555;22;20376;-86
2022/10/19 12:28:29;;;;;;;4.67;2.80;;;20.50;99.90;;;;;;6312510;22;20377;-86
2022/10/19 12:30:57;;;;;;;9.33;2.40;;;20.30;99.90;;;;;;6341091;22;20652;-87
2022/10/19 12:33:41;;;;;;;3.13;2.50;;;20.30;99.90;;;;;;6311817;22;20376;-86
2022/10/19 12:36:32;;;;;;;2.83;2.47;;;20.00;99.90;;;;;;6313995;22;20376;-87
2022/10/19 12:39:09;;;;;;;4.07;3.43;;;19.70;99.90;;;;;;6340092;22;20353;-87
2022/10/19 12:41:43;;;;;;;6.83;4.60;;;19.70;99.90;;;;;;6311880;22;20402;-85
2022/10/19 12:44:34;;;;;;;9.33;5.50;;;19.80;99.90;;;;;;6312003;22;20457;-87
2022/10/19 12:47:10;;;;;;;7.10;5.33;;;19.90;99.90;;;;;;6312123;22;20372;-86
2022/10/19 12:49:47;;;;;;;5.73;4.17;;;19.80;99.90;;;;;;6339271;22;20477;-88
2022/10/19 12:52:15;;;;;;;5.70;4.87;;;19.60;99.90;;;;;;6310498;22;20365;-87
2022/10/19 12:54:42;;;;;;;4.93;4.40;;;19.70;99.90;;;;;;6311887;22;20988;-86
2022/10/19 12:57:27;;;;;;;7.40;4.90;;;19.80;99.90;;;;;;6311522;22;20369;-87
2022/10/19 13:00:26;;;;;;;8.10;4.63;;;20.00;99.90;;;;;;6341736;22;20357;-88
2022/10/19 13:03:14;;;;;;;9.60;5.30;;;20.40;99.90;;;;;;6312549;22;20387;-86
2022/10/19 13:05:40;;;;;;;4.50;4.07;;;20.20;99.90;;;;;;6313583;22;20368;-87
2022/10/19 13:08:07;;;;;;;6.13;4.77;;;;;;;;;;6340763;22;20376;-87
2022/10/19 13:10:33;;;;;;;5.73;4.80;;;;;;;;;;6312770;22;20431;-86
2022/10/19 13:13:00;;;;;;;6.50;5.33;;;20.10;99.90;;;;;;6312918;22;20369;-87
2022/10/19 13:15:35;;;;;;;7.10;6.37;;;19.90;99.90;;;;;;6312761;22;20706;-86
2022/10/19 13:18:42;;;;;;;12.37;5.90;;;19.50;99.90;;;;;;6312625;22;20461;-87
2022/10/19 13:21:08;;;;;;;7.30;6.53;;;19.50;99.90;;;;;;6314657;22;20415;-87
2022/10/19 13:23:33;;;;;;;7.10;5.70;;;;;;;;;;6313236;22;20365;-88
2022/10/19 13:26:32;;;;;;;7.60;5.70;;;19.40;99.90;;;;;;6313548;22;20147;-85
2022/10/19 13:28:58;;;;;;;7.03;5.73;;;;;;;;;;6312507;22;20887;-86